Pagrindinis puslapis
METAR-TAF:

METAR-TAF

Oro uostai :

Kiutahija, Turkija

platuma: 39-06-41N, ilguma: 30-07-48E, Aukštis: 1013 m

METAR: trūkstamas

Laikas: 07:47 (04:47 UTC)

Prognozė

Ataskaita buvo paskelbta 3 valandos ir 7 minutes, ne 01:40 UTC
Prognozė galioja nuo 22 metu 03 UTC su 22 metu 12 UTC
Vėjas 2 kt nuo kintamojo kryptimis
Matomumas 10 km arba daugiau
Su prošvaistėmis ne aukštis 3500 ft

TAF: LTBZ 220140Z 2203/2212 VRB02KT 9999 BKN035

Orai ataskaitas ir orų prognozės (METAR, TAF).

turimą stotys yra geltonos ir raudonos taškus žemėlapyje.

Perkelti pele per norėdami pamatyti stoties vardą.

Tada spustelėkite, norėdami matyti oro stebėjimo ir prognozės.

Norėdami pakeisti žemėlapį: spustelėkite ant žalios mygtukų su juodo kryžiaus žemyn,; žalią mygtuką su brūkšneliu, jei norite nutolinti; arba žalių rodyklių gretimoms žemėlapius.


METAR-TAF: